sensor_id;sensor_type;location;lat;lon;timestamp;pressure;altitude;pressure_sealevel;temperature;humidity
41596;BME280;27283;52.504;13.358;2022-09-23T00:00:07;101827.84;;;7.96;93.00
41596;BME280;27283;52.504;13.358;2022-09-23T00:02:58;101834.03;;;7.96;92.78
41596;BME280;27283;52.504;13.358;2022-09-23T00:05:33;101832.94;;;7.99;92.90
41596;BME280;27283;52.504;13.358;2022-09-23T00:08:06;101825.75;;;8.11;91.59
41596;BME280;27283;52.504;13.358;2022-09-23T00:10:39;101828.03;;;8.27;90.27
41596;BME280;27283;52.504;13.358;2022-09-23T00:13:24;101820.88;;;8.27;89.95
41596;BME280;27283;52.504;13.358;2022-09-23T00:16:11;101830.09;;;8.34;88.89
41596;BME280;27283;52.504;13.358;2022-09-23T00:18:43;101829.34;;;8.55;88.01
41596;BME280;27283;52.504;13.358;2022-09-23T00:21:20;101818.38;;;8.47;88.14
41596;BME280;27283;52.504;13.358;2022-09-23T00:23:52;101823.84;;;8.57;87.23
41596;BME280;27283;52.504;13.358;2022-09-23T00:26:24;101818.81;;;8.75;86.67
41596;BME280;27283;52.504;13.358;2022-09-23T00:28:56;101821.34;;;8.76;86.00
41596;BME280;27283;52.504;13.358;2022-09-23T00:31:28;101815.03;;;8.77;85.97
41596;BME280;27283;52.504;13.358;2022-09-23T00:34:00;101810.75;;;8.75;86.37
41596;BME280;27283;52.504;13.358;2022-09-23T00:36:35;101806.88;;;8.67;86.85
41596;BME280;27283;52.504;13.358;2022-09-23T00:39:07;101806.16;;;8.65;86.92
41596;BME280;27283;52.504;13.358;2022-09-23T00:41:40;101798.38;;;8.62;86.78
41596;BME280;27283;52.504;13.358;2022-09-23T00:44:43;101801.44;;;8.58;87.34
41596;BME280;27283;52.504;13.358;2022-09-23T00:47:20;101805.47;;;8.52;87.51
41596;BME280;27283;52.504;13.358;2022-09-23T00:50:03;101805.09;;;8.45;88.15
41596;BME280;27283;52.504;13.358;2022-09-23T00:52:41;101803.03;;;8.38;88.54
41596;BME280;27283;52.504;13.358;2022-09-23T00:55:30;101801.72;;;8.32;88.38
41596;BME280;27283;52.504;13.358;2022-09-23T00:58:09;101800.97;;;8.30;88.82
41596;BME280;27283;52.504;13.358;2022-09-23T01:01:25;101791.72;;;8.23;88.84
41596;BME280;27283;52.504;13.358;2022-09-23T01:03:57;101798.34;;;8.19;89.30
41596;BME280;27283;52.504;13.358;2022-09-23T01:06:29;101793.34;;;8.14;89.31
41596;BME280;27283;52.504;13.358;2022-09-23T01:09:04;101798.84;;;8.12;89.67
41596;BME280;27283;52.504;13.358;2022-09-23T01:11:40;101793.97;;;8.06;89.66
41596;BME280;27283;52.504;13.358;2022-09-23T01:14:32;101788.97;;;8.02;90.03
41596;BME280;27283;52.504;13.358;2022-09-23T01:17:10;101783.13;;;7.96;90.18
41596;BME280;27283;52.504;13.358;2022-09-23T01:20:09;101787.03;;;7.92;90.35
41596;BME280;27283;52.504;13.358;2022-09-23T01:22:53;101781.81;;;7.91;90.76
41596;BME280;27283;52.504;13.358;2022-09-23T01:25:54;101779.50;;;7.86;91.08
41596;BME280;27283;52.504;13.358;2022-09-23T01:28:43;101771.72;;;7.83;91.16
41596;BME280;27283;52.504;13.358;2022-09-23T01:31:23;101778.31;;;7.79;91.49
41596;BME280;27283;52.504;13.358;2022-09-23T01:34:08;101776.59;;;7.78;91.12
41596;BME280;27283;52.504;13.358;2022-09-23T01:36:45;101775.13;;;7.74;91.38
41596;BME280;27283;52.504;13.358;2022-09-23T01:39:22;101771.97;;;7.69;91.73
41596;BME280;27283;52.504;13.358;2022-09-23T01:42:01;101763.94;;;7.69;92.08
41596;BME280;27283;52.504;13.358;2022-09-23T01:44:39;101763.19;;;7.67;92.18
41596;BME280;27283;52.504;13.358;2022-09-23T01:47:21;101769.66;;;7.64;92.20
41596;BME280;27283;52.504;13.358;2022-09-23T01:49:57;101764.31;;;7.64;92.12
41596;BME280;27283;52.504;13.358;2022-09-23T01:52:35;101762.00;;;7.59;92.33
41596;BME280;27283;52.504;13.358;2022-09-23T01:55:14;101767.47;;;7.58;92.32
41596;BME280;27283;52.504;13.358;2022-09-23T01:57:54;101762.13;;;7.58;92.11
41596;BME280;27283;52.504;13.358;2022-09-23T02:00:29;101768.44;;;7.57;92.51
41596;BME280;27283;52.504;13.358;2022-09-23T02:03:08;101758.94;;;7.53;92.30
41596;BME280;27283;52.504;13.358;2022-09-23T02:05:45;101764.28;;;7.53;92.47
41596;BME280;27283;52.504;13.358;2022-09-23T02:08:21;101759.31;;;7.48;92.63
41596;BME280;27283;52.504;13.358;2022-09-23T02:10:57;101762.13;;;7.58;92.61
41596;BME280;27283;52.504;13.358;2022-09-23T02:13:38;101754.31;;;7.55;92.33
41596;BME280;27283;52.504;13.358;2022-09-23T02:16:14;101748.22;;;7.53;91.80
41596;BME280;27283;52.504;13.358;2022-09-23T02:18:53;101752.38;;;7.57;91.06
41596;BME280;27283;52.504;13.358;2022-09-23T02:21:33;101743.03;;;7.62;90.91
41596;BME280;27283;52.504;13.358;2022-09-23T02:24:09;101739.59;;;7.60;90.58
41596;BME280;27283;52.504;13.358;2022-09-23T02:26:47;101740.22;;;7.64;90.13
41596;BME280;27283;52.504;13.358;2022-09-23T02:29:25;101734.25;;;7.60;90.50
41596;BME280;27283;52.504;13.358;2022-09-23T02:32:05;101726.09;;;7.62;90.32
41596;BME280;27283;52.504;13.358;2022-09-23T02:34:53;101733.41;;;7.60;90.32
41596;BME280;27283;52.504;13.358;2022-09-23T02:37:34;101728.41;;;7.55;90.34
41596;BME280;27283;52.504;13.358;2022-09-23T02:40:13;101717.94;;;7.52;90.02
41596;BME280;27283;52.504;13.358;2022-09-23T02:43:00;101731.69;;;7.48;90.35
41596;BME280;27283;52.504;13.358;2022-09-23T02:45:36;101722.81;;;7.47;90.62
41596;BME280;27283;52.504;13.358;2022-09-23T02:48:12;101722.94;;;7.45;90.91
41596;BME280;27283;52.504;13.358;2022-09-23T02:50:49;101722.31;;;7.42;90.79
41596;BME280;27283;52.504;13.358;2022-09-23T02:53:22;101716.72;;;7.45;91.11
41596;BME280;27283;52.504;13.358;2022-09-23T02:55:55;101714.31;;;7.42;91.15
41596;BME280;27283;52.504;13.358;2022-09-23T02:58:27;101715.25;;;7.41;91.34
41596;BME280;27283;52.504;13.358;2022-09-23T03:01:09;101700.31;;;7.38;91.24
41596;BME280;27283;52.504;13.358;2022-09-23T03:03:48;101705.91;;;7.35;91.42
41596;BME280;27283;52.504;13.358;2022-09-23T03:06:29;101700.56;;;7.35;90.99
41596;BME280;27283;52.504;13.358;2022-09-23T03:09:05;101705.78;;;7.37;90.94
41596;BME280;27283;52.504;13.358;2022-09-23T03:11:43;101707.72;;;7.35;91.05
41596;BME280;27283;52.504;13.358;2022-09-23T03:14:21;101697.16;;;7.33;91.19
41596;BME280;27283;52.504;13.358;2022-09-23T03:17:01;101695.44;;;7.32;91.28
41596;BME280;27283;52.504;13.358;2022-09-23T03:19:36;101692.75;;;7.32;91.27
41596;BME280;27283;52.504;13.358;2022-09-23T03:22:17;101683.03;;;7.31;91.13
41596;BME280;27283;52.504;13.358;2022-09-23T03:24:53;101689.38;;;7.30;91.14
41596;BME280;27283;52.504;13.358;2022-09-23T03:27:30;101684.84;;;7.31;91.07
41596;BME280;27283;52.504;13.358;2022-09-23T03:30:04;101688.53;;;7.30;91.14
41596;BME280;27283;52.504;13.358;2022-09-23T03:32:38;101685.09;;;7.27;91.02
41596;BME280;27283;52.504;13.358;2022-09-23T03:35:13;101686.22;;;7.25;91.07
41596;BME280;27283;52.504;13.358;2022-09-23T03:37:51;101690.09;;;7.21;91.50
41596;BME280;27283;52.504;13.358;2022-09-23T03:40:26;101681.22;;;7.20;91.35
41596;BME280;27283;52.504;13.358;2022-09-23T03:43:00;101678.78;;;7.17;91.60
41596;BME280;27283;52.504;13.358;2022-09-23T03:45:33;101679.88;;;7.15;91.74
41596;BME280;27283;52.504;13.358;2022-09-23T03:48:05;101678.03;;;7.15;92.11
41596;BME280;27283;52.504;13.358;2022-09-23T03:50:36;101672.81;;;7.14;92.07
41596;BME280;27283;52.504;13.358;2022-09-23T03:53:11;101681.72;;;7.14;92.30
41596;BME280;27283;52.504;13.358;2022-09-23T03:55:45;101671.84;;;7.15;91.86
41596;BME280;27283;52.504;13.358;2022-09-23T03:58:17;101669.44;;;7.12;92.32
41596;BME280;27283;52.504;13.358;2022-09-23T04:00:48;101667.72;;;7.10;92.41
41596;BME280;27283;52.504;13.358;2022-09-23T04:03:22;101668.66;;;7.09;92.15
41596;BME280;27283;52.504;13.358;2022-09-23T04:05:56;101668.78;;;7.08;92.28
41596;BME280;27283;52.504;13.358;2022-09-23T04:08:31;101668.78;;;7.08;92.40
41596;BME280;27283;52.504;13.358;2022-09-23T04:11:02;101659.94;;;7.07;92.31
41596;BME280;27283;52.504;13.358;2022-09-23T04:13:35;101656.66;;;7.04;92.38
41596;BME280;27283;52.504;13.358;2022-09-23T04:16:07;101663.09;;;7.01;92.37
41596;BME280;27283;52.504;13.358;2022-09-23T04:18:39;101656.91;;;7.01;92.44
41596;BME280;27283;52.504;13.358;2022-09-23T04:21:10;101653.22;;;7.02;92.40
41596;BME280;27283;52.504;13.358;2022-09-23T04:23:45;101649.72;;;7.01;92.67
41596;BME280;27283;52.504;13.358;2022-09-23T04:26:17;101653.47;;;6.99;92.77
41596;BME280;27283;52.504;13.358;2022-09-23T04:28:49;101649.13;;;6.98;93.04
41596;BME280;27283;52.504;13.358;2022-09-23T04:31:21;101655.66;;;6.94;93.09
41596;BME280;27283;52.504;13.358;2022-09-23T04:33:53;101652.88;;;6.95;93.35
41596;BME280;27283;52.504;13.358;2022-09-23T04:36:25;101647.53;;;6.95;93.45
41596;BME280;27283;52.504;13.358;2022-09-23T04:39:00;101643.91;;;6.96;93.50
41596;BME280;27283;52.504;13.358;2022-09-23T04:41:32;101649.97;;;6.98;93.55
41596;BME280;27283;52.504;13.358;2022-09-23T04:44:04;101651.06;;;7.07;93.51
41596;BME280;27283;52.504;13.358;2022-09-23T04:46:36;101648.16;;;7.10;93.03
41596;BME280;27283;52.504;13.358;2022-09-23T04:49:08;101645.22;;;7.13;92.71
41596;BME280;27283;52.504;13.358;2022-09-23T04:51:40;101648.50;;;7.17;92.42
41596;BME280;27283;52.504;13.358;2022-09-23T04:54:15;101649.63;;;7.14;93.34
41596;BME280;27283;52.504;13.358;2022-09-23T04:56:47;101644.16;;;7.16;93.36
41596;BME280;27283;52.504;13.358;2022-09-23T04:59:19;101641.34;;;7.28;92.69
41596;BME280;27283;52.504;13.358;2022-09-23T05:01:51;101648.88;;;7.23;92.80
41596;BME280;27283;52.504;13.358;2022-09-23T05:04:22;101642.53;;;7.36;91.96
41596;BME280;27283;52.504;13.358;2022-09-23T05:06:54;101645.94;;;7.38;91.50
41596;BME280;27283;52.504;13.358;2022-09-23T05:09:33;101643.63;;;7.33;91.70
41596;BME280;27283;52.504;13.358;2022-09-23T05:12:06;101642.28;;;7.50;91.32
41596;BME280;27283;52.504;13.358;2022-09-23T05:14:38;101641.22;;;7.41;91.37
41596;BME280;27283;52.504;13.358;2022-09-23T05:17:10;101642.66;;;7.45;90.95
41596;BME280;27283;52.504;13.358;2022-09-23T05:19:42;101639.84;;;7.58;90.66
41596;BME280;27283;52.504;13.358;2022-09-23T05:22:14;101640.56;;;7.60;90.51
41596;BME280;27283;52.504;13.358;2022-09-23T05:24:49;101643.03;;;7.52;90.23
41596;BME280;27283;52.504;13.358;2022-09-23T05:27:21;101643.47;;;7.69;89.71
41596;BME280;27283;52.504;13.358;2022-09-23T05:30:06;101635.06;;;7.73;89.32
41596;BME280;27283;52.504;13.358;2022-09-23T05:32:40;101637.75;;;7.73;89.25
41596;BME280;27283;52.504;13.358;2022-09-23T05:35:12;101635.19;;;7.72;89.21
41596;BME280;27283;52.504;13.358;2022-09-23T05:37:44;101636.63;;;7.76;89.22
41596;BME280;27283;52.504;13.358;2022-09-23T05:40:19;101645.16;;;7.81;88.86
41596;BME280;27283;52.504;13.358;2022-09-23T05:42:51;101643.81;;;7.75;88.96
41596;BME280;27283;52.504;13.358;2022-09-23T05:45:24;101645.22;;;7.91;88.40
41596;BME280;27283;52.504;13.358;2022-09-23T05:48:10;101636.91;;;8.05;87.51
41596;BME280;27283;52.504;13.358;2022-09-23T05:50:48;101645.28;;;8.12;87.43
41596;BME280;27283;52.504;13.358;2022-09-23T05:53:21;101636.59;;;8.20;87.19
41596;BME280;27283;52.504;13.358;2022-09-23T05:55:56;101641.47;;;8.26;86.36
41596;BME280;27283;52.504;13.358;2022-09-23T05:58:28;101639.94;;;8.33;86.07
41596;BME280;27283;52.504;13.358;2022-09-23T06:01:08;101644.25;;;8.24;87.13
41596;BME280;27283;52.504;13.358;2022-09-23T06:03:40;101643.16;;;8.27;87.29
41596;BME280;27283;52.504;13.358;2022-09-23T06:06:13;101641.25;;;8.39;87.11
41596;BME280;27283;52.504;13.358;2022-09-23T06:08:46;101639.81;;;8.46;86.42
41596;BME280;27283;52.504;13.358;2022-09-23T06:11:21;101645.97;;;8.58;84.88
41596;BME280;27283;52.504;13.358;2022-09-23T06:13:54;101649.41;;;8.69;84.94
41596;BME280;27283;52.504;13.358;2022-09-23T06:16:30;101644.91;;;8.70;84.34
41596;BME280;27283;52.504;13.358;2022-09-23T06:19:04;101639.41;;;8.72;84.58
41596;BME280;27283;52.504;13.358;2022-09-23T06:21:37;101642.41;;;8.78;85.18
41596;BME280;27283;52.504;13.358;2022-09-23T06:24:09;101644.81;;;8.81;84.83
41596;BME280;27283;52.504;13.358;2022-09-23T06:26:51;101645.56;;;8.83;85.03
41596;BME280;27283;52.504;13.358;2022-09-23T06:29:23;101645.72;;;8.92;84.25
41596;BME280;27283;52.504;13.358;2022-09-23T06:31:56;101647.69;;;8.90;83.37
41596;BME280;27283;52.504;13.358;2022-09-23T06:34:28;101648.47;;;9.01;82.43
41596;BME280;27283;52.504;13.358;2022-09-23T06:37:14;101644.84;;;9.12;82.88
41596;BME280;27283;52.504;13.358;2022-09-23T06:39:48;101652.66;;;9.25;81.20
41596;BME280;27283;52.504;13.358;2022-09-23T06:42:25;101649.94;;;9.15;82.20
41596;BME280;27283;52.504;13.358;2022-09-23T06:44:57;101653.13;;;9.40;81.25
41596;BME280;27283;52.504;13.358;2022-09-23T06:47:30;101653.59;;;9.45;78.97
41596;BME280;27283;52.504;13.358;2022-09-23T06:50:02;101650.50;;;9.60;78.10
41596;BME280;27283;52.504;13.358;2022-09-23T06:52:34;101660.41;;;9.69;78.09
41596;BME280;27283;52.504;13.358;2022-09-23T06:55:07;101654.09;;;9.89;77.51
41596;BME280;27283;52.504;13.358;2022-09-23T06:57:42;101652.16;;;10.01;76.57
41596;BME280;27283;52.504;13.358;2022-09-23T07:00:14;101652.59;;;10.16;76.91
41596;BME280;27283;52.504;13.358;2022-09-23T07:02:47;101650.06;;;10.34;75.31
41596;BME280;27283;52.504;13.358;2022-09-23T07:05:19;101649.06;;;10.45;75.05
41596;BME280;27283;52.504;13.358;2022-09-23T07:07:51;101649.78;;;10.57;74.59
41596;BME280;27283;52.504;13.358;2022-09-23T07:10:23;101645.59;;;10.82;73.81
41596;BME280;27283;52.504;13.358;2022-09-23T07:13:03;101651.16;;;11.18;72.79
41596;BME280;27283;52.504;13.358;2022-09-23T07:15:35;101651.69;;;11.22;72.93
41596;BME280;27283;52.504;13.358;2022-09-23T07:18:07;101647.84;;;11.24;72.79
41596;BME280;27283;52.504;13.358;2022-09-23T07:20:39;101653.31;;;11.42;72.49
41596;BME280;27283;52.504;13.358;2022-09-23T07:23:11;101651.03;;;11.65;72.75
41596;BME280;27283;52.504;13.358;2022-09-23T07:25:44;101658.13;;;11.66;71.54
41596;BME280;27283;52.504;13.358;2022-09-23T07:28:22;101652.31;;;11.89;69.10
41596;BME280;27283;52.504;13.358;2022-09-23T07:30:55;101652.59;;;11.96;69.47
41596;BME280;27283;52.504;13.358;2022-09-23T07:33:28;101647.91;;;11.98;72.68
41596;BME280;27283;52.504;13.358;2022-09-23T07:36:05;101650.19;;;12.29;69.34
41596;BME280;27283;52.504;13.358;2022-09-23T07:38:39;101652.72;;;12.48;69.60
41596;BME280;27283;52.504;13.358;2022-09-23T07:41:16;101647.84;;;12.70;67.19
41596;BME280;27283;52.504;13.358;2022-09-23T07:43:51;101642.41;;;12.88;66.57
41596;BME280;27283;52.504;13.358;2022-09-23T07:46:28;101641.16;;;13.08;66.11
41596;BME280;27283;52.504;13.358;2022-09-23T07:49:01;101643.66;;;13.02;70.33
41596;BME280;27283;52.504;13.358;2022-09-23T07:51:34;101650.00;;;13.27;64.91
41596;BME280;27283;52.504;13.358;2022-09-23T07:54:10;101648.16;;;13.27;63.71
41596;BME280;27283;52.504;13.358;2022-09-23T07:56:43;101654.53;;;13.44;62.81
41596;BME280;27283;52.504;13.358;2022-09-23T07:59:19;101653.03;;;13.50;63.08
41596;BME280;27283;52.504;13.358;2022-09-23T08:01:51;101648.69;;;13.65;62.79
41596;BME280;27283;52.504;13.358;2022-09-23T08:04:26;101642.66;;;13.80;63.92
41596;BME280;27283;52.504;13.358;2022-09-23T08:07:00;101640.50;;;14.00;63.04
41596;BME280;27283;52.504;13.358;2022-09-23T08:09:35;101645.69;;;13.77;64.12
41596;BME280;27283;52.504;13.358;2022-09-23T08:12:11;101646.41;;;14.12;62.34
41596;BME280;27283;52.504;13.358;2022-09-23T08:14:46;101643.03;;;14.26;66.69
41596;BME280;27283;52.504;13.358;2022-09-23T08:17:18;101641.34;;;14.75;59.70
41596;BME280;27283;52.504;13.358;2022-09-23T08:19:50;101629.91;;;15.12;59.86
41596;BME280;27283;52.504;13.358;2022-09-23T08:22:22;101636.13;;;15.69;56.23
41596;BME280;27283;52.504;13.358;2022-09-23T08:24:54;101639.47;;;15.79;59.83
41596;BME280;27283;52.504;13.358;2022-09-23T08:27:25;101628.44;;;16.50;58.25
41596;BME280;27283;52.504;13.358;2022-09-23T08:30:00;101637.13;;;17.28;53.60
41596;BME280;27283;52.504;13.358;2022-09-23T08:32:31;101630.66;;;17.81;52.54
41596;BME280;27283;52.504;13.358;2022-09-23T08:35:04;101634.47;;;18.23;51.72
41596;BME280;27283;52.504;13.358;2022-09-23T08:37:36;101626.47;;;18.71;50.65
41596;BME280;27283;52.504;13.358;2022-09-23T08:40:08;101629.91;;;19.08;48.80
41596;BME280;27283;52.504;13.358;2022-09-23T08:42:42;101622.28;;;19.39;43.44
41596;BME280;27283;52.504;13.358;2022-09-23T08:45:21;101620.34;;;18.91;44.70
41596;BME280;27283;52.504;13.358;2022-09-23T08:47:57;101621.88;;;19.00;43.70
41596;BME280;27283;52.504;13.358;2022-09-23T08:50:41;101617.41;;;19.27;44.72
41596;BME280;27283;52.504;13.358;2022-09-23T08:53:17;101609.34;;;19.12;47.91
41596;BME280;27283;52.504;13.358;2022-09-23T08:55:53;101609.81;;;19.71;43.84
41596;BME280;27283;52.504;13.358;2022-09-23T08:58:39;101604.00;;;19.88;43.44
41596;BME280;27283;52.504;13.358;2022-09-23T09:01:19;101596.06;;;20.26;41.92
41596;BME280;27283;52.504;13.358;2022-09-23T09:03:54;101604.03;;;20.14;43.06
41596;BME280;27283;52.504;13.358;2022-09-23T09:06:29;101598.16;;;20.17;44.72
41596;BME280;27283;52.504;13.358;2022-09-23T09:09:23;101599.81;;;20.79;41.93
41596;BME280;27283;52.504;13.358;2022-09-23T09:12:01;101601.50;;;20.86;44.15
41596;BME280;27283;52.504;13.358;2022-09-23T09:14:36;101597.31;;;20.64;41.38
41596;BME280;27283;52.504;13.358;2022-09-23T09:17:21;101601.28;;;20.81;41.71
41596;BME280;27283;52.504;13.358;2022-09-23T09:20:06;101599.69;;;21.25;40.01
41596;BME280;27283;52.504;13.358;2022-09-23T09:22:51;101600.38;;;21.14;42.55
41596;BME280;27283;52.504;13.358;2022-09-23T09:25:43;101606.47;;;21.10;43.63
41596;BME280;27283;52.504;13.358;2022-09-23T09:28:19;101605.34;;;21.31;38.29
41596;BME280;27283;52.504;13.358;2022-09-23T09:30:58;101601.06;;;21.55;40.14
41596;BME280;27283;52.504;13.358;2022-09-23T09:33:37;101596.44;;;21.55;39.06
41596;BME280;27283;52.504;13.358;2022-09-23T09:36:19;101590.63;;;21.77;40.04
41596;BME280;27283;52.504;13.358;2022-09-23T09:38:54;101582.06;;;21.67;37.73
41596;BME280;27283;52.504;13.358;2022-09-23T09:41:27;101585.06;;;21.90;38.57
41596;BME280;27283;52.504;13.358;2022-09-23T09:44:01;101578.25;;;21.68;37.90
41596;BME280;27283;52.504;13.358;2022-09-23T09:46:51;101567.03;;;22.08;37.62
41596;BME280;27283;52.504;13.358;2022-09-23T09:49:35;101566.31;;;22.44;37.19
41596;BME280;27283;52.504;13.358;2022-09-23T09:52:19;101569.84;;;22.01;35.91
41596;BME280;27283;52.504;13.358;2022-09-23T09:54:53;101558.16;;;22.12;36.25
41596;BME280;27283;52.504;13.358;2022-09-23T09:57:31;101553.00;;;21.66;38.51
41596;BME280;27283;52.504;13.358;2022-09-23T10:00:33;101548.81;;;22.45;38.57
41596;BME280;27283;52.504;13.358;2022-09-23T10:03:22;101546.03;;;22.71;34.98
41596;BME280;27283;52.504;13.358;2022-09-23T10:05:58;101547.97;;;22.45;33.28
41596;BME280;27283;52.504;13.358;2022-09-23T10:08:31;101549.97;;;21.81;35.43
41596;BME280;27283;52.504;13.358;2022-09-23T10:11:04;101541.94;;;21.47;38.08
41596;BME280;27283;52.504;13.358;2022-09-23T10:13:37;101539.22;;;21.40;41.62
41596;BME280;27283;52.504;13.358;2022-09-23T10:16:08;101546.22;;;21.36;33.57
41596;BME280;27283;52.504;13.358;2022-09-23T10:18:49;101540.09;;;20.89;35.34
41596;BME280;27283;52.504;13.358;2022-09-23T10:21:31;101538.25;;;20.76;38.42
41596;BME280;27283;52.504;13.358;2022-09-23T10:24:06;101539.34;;;21.20;36.62
41596;BME280;27283;52.504;13.358;2022-09-23T10:26:41;101539.50;;;21.32;37.43
41596;BME280;27283;52.504;13.358;2022-09-23T10:29:22;101536.31;;;20.90;37.48
41596;BME280;27283;52.504;13.358;2022-09-23T10:32:23;101541.19;;;21.33;35.89
41596;BME280;27283;52.504;13.358;2022-09-23T10:35:00;101524.47;;;21.03;36.51
41596;BME280;27283;52.504;13.358;2022-09-23T10:37:37;101525.97;;;21.44;34.00
41596;BME280;27283;52.504;13.358;2022-09-23T10:40:17;101527.13;;;21.62;34.19
41596;BME280;27283;52.504;13.358;2022-09-23T10:43:27;101530.53;;;21.57;34.26
41596;BME280;27283;52.504;13.358;2022-09-23T10:46:20;101522.75;;;21.54;35.05
41596;BME280;27283;52.504;13.358;2022-09-23T10:49:33;101521.34;;;21.76;34.21
41596;BME280;27283;52.504;13.358;2022-09-23T10:52:38;101525.03;;;21.64;35.15
41596;BME280;27283;52.504;13.358;2022-09-23T10:55:38;101528.22;;;21.09;36.35
41596;BME280;27283;52.504;13.358;2022-09-23T10:58:33;101517.94;;;21.04;34.15
41596;BME280;27283;52.504;13.358;2022-09-23T11:01:21;101516.00;;;21.18;33.93
41596;BME280;27283;52.504;13.358;2022-09-23T11:04:29;101513.00;;;20.61;36.06
41596;BME280;27283;52.504;13.358;2022-09-23T11:07:12;101504.53;;;21.34;34.97
41596;BME280;27283;52.504;13.358;2022-09-23T11:10:18;101516.22;;;20.38;34.88
41596;BME280;27283;52.504;13.358;2022-09-23T11:13:26;101507.03;;;19.92;36.72
41596;BME280;27283;52.504;13.358;2022-09-23T11:16:08;101493.97;;;20.27;36.08
41596;BME280;27283;52.504;13.358;2022-09-23T11:21:59;101495.88;;;19.80;36.52
41596;BME280;27283;52.504;13.358;2022-09-23T11:27:54;101490.22;;;20.01;38.54
41596;BME280;27283;52.504;13.358;2022-09-23T11:30:31;101476.09;;;19.51;37.52
41596;BME280;27283;52.504;13.358;2022-09-23T11:33:18;101470.63;;;19.31;38.41
41596;BME280;27283;52.504;13.358;2022-09-23T11:35:58;101471.72;;;19.77;37.13
41596;BME280;27283;52.504;13.358;2022-09-23T11:38:35;101466.38;;;19.22;37.82
41596;BME280;27283;52.504;13.358;2022-09-23T11:41:15;101462.50;;;19.85;33.72
41596;BME280;27283;52.504;13.358;2022-09-23T11:43:55;101457.88;;;19.85;33.89
41596;BME280;27283;52.504;13.358;2022-09-23T11:46:35;101458.72;;;19.79;34.14
41596;BME280;27283;52.504;13.358;2022-09-23T11:49:14;101457.84;;;19.45;35.79
41596;BME280;27283;52.504;13.358;2022-09-23T11:52:00;101443.16;;;19.53;35.02
41596;BME280;27283;52.504;13.358;2022-09-23T11:54:39;101451.09;;;19.27;39.58
41596;BME280;27283;52.504;13.358;2022-09-23T11:57:19;101444.19;;;19.25;37.93
41596;BME280;27283;52.504;13.358;2022-09-23T11:59:59;101442.88;;;19.07;36.37
41596;BME280;27283;52.504;13.358;2022-09-23T12:02:41;101430.47;;;18.98;36.13
41596;BME280;27283;52.504;13.358;2022-09-23T12:05:36;101429.66;;;19.11;36.62
41596;BME280;27283;52.504;13.358;2022-09-23T12:08:16;101425.31;;;19.30;36.31
41596;BME280;27283;52.504;13.358;2022-09-23T12:10:54;101433.28;;;18.76;37.10
41596;BME280;27283;52.504;13.358;2022-09-23T12:13:36;101421.44;;;18.98;36.50
41596;BME280;27283;52.504;13.358;2022-09-23T12:16:45;101411.44;;;18.56;36.44
41596;BME280;27283;52.504;13.358;2022-09-23T12:19:40;101417.31;;;18.60;37.60
41596;BME280;27283;52.504;13.358;2022-09-23T12:22:29;101414.06;;;18.85;35.68
41596;BME280;27283;52.504;13.358;2022-09-23T12:25:22;101411.13;;;18.80;36.99
41596;BME280;27283;52.504;13.358;2022-09-23T12:28:01;101412.31;;;18.70;37.31
41596;BME280;27283;52.504;13.358;2022-09-23T12:30:37;101409.84;;;18.82;35.76
41596;BME280;27283;52.504;13.358;2022-09-23T12:33:19;101405.72;;;18.45;34.17
41596;BME280;27283;52.504;13.358;2022-09-23T12:36:02;101393.84;;;18.59;34.07
41596;BME280;27283;52.504;13.358;2022-09-23T12:38:37;101398.53;;;18.30;35.35
41596;BME280;27283;52.504;13.358;2022-09-23T12:41:19;101400.59;;;18.76;34.88
41596;BME280;27283;52.504;13.358;2022-09-23T12:43:57;101399.69;;;18.56;35.16
41596;BME280;27283;52.504;13.358;2022-09-23T12:46:30;101394.88;;;18.51;36.20
41596;BME280;27283;52.504;13.358;2022-09-23T12:49:21;101392.81;;;18.60;36.74
41596;BME280;27283;52.504;13.358;2022-09-23T12:52:20;101390.03;;;18.53;36.97
41596;BME280;27283;52.504;13.358;2022-09-23T12:58:36;101390.38;;;18.37;35.79
41596;BME280;27283;52.504;13.358;2022-09-23T13:01:17;101382.47;;;18.42;37.27
41596;BME280;27283;52.504;13.358;2022-09-23T13:03:58;101381.31;;;17.38;39.33
41596;BME280;27283;52.504;13.358;2022-09-23T13:06:50;101376.00;;;17.80;37.86
41596;BME280;27283;52.504;13.358;2022-09-23T13:09:28;101371.16;;;18.03;37.52
41596;BME280;27283;52.504;13.358;2022-09-23T13:12:06;101359.59;;;17.95;38.71
41596;BME280;27283;52.504;13.358;2022-09-23T13:14:43;101361.28;;;17.96;38.24
41596;BME280;27283;52.504;13.358;2022-09-23T13:17:25;101354.63;;;17.77;37.70
41596;BME280;27283;52.504;13.358;2022-09-23T13:20:04;101357.81;;;17.80;38.35
41596;BME280;27283;52.504;13.358;2022-09-23T13:23:02;101355.88;;;17.74;37.59
41596;BME280;27283;52.504;13.358;2022-09-23T13:25:39;101348.66;;;17.60;37.95
41596;BME280;27283;52.504;13.358;2022-09-23T13:28:27;101342.31;;;17.81;38.08
41596;BME280;27283;52.504;13.358;2022-09-23T13:31:03;101342.88;;;17.98;37.20
41596;BME280;27283;52.504;13.358;2022-09-23T13:33:40;101340.94;;;17.63;37.71
41596;BME280;27283;52.504;13.358;2022-09-23T13:36:15;101330.91;;;17.64;38.07
41596;BME280;27283;52.504;13.358;2022-09-23T13:38:51;101330.94;;;17.70;37.79
41596;BME280;27283;52.504;13.358;2022-09-23T13:41:41;101318.47;;;17.83;37.54
41596;BME280;27283;52.504;13.358;2022-09-23T13:44:16;101324.63;;;17.92;36.90
41596;BME280;27283;52.504;13.358;2022-09-23T13:46:52;101318.84;;;18.01;37.85
41596;BME280;27283;52.504;13.358;2022-09-23T13:49:35;101316.06;;;17.95;37.12
41596;BME280;27283;52.504;13.358;2022-09-23T13:52:23;101304.47;;;17.86;36.91